createdAt,value
2019-01-26T00:01:16.976Z,8.30
2019-01-26T00:03:45.726Z,7.70
2019-01-26T00:06:14.570Z,7.47
2019-01-26T00:08:43.326Z,7.70
2019-01-26T00:11:12.110Z,8.73
2019-01-26T00:13:40.859Z,7.67
2019-01-26T00:16:09.743Z,7.50
2019-01-26T00:18:38.492Z,7.37
2019-01-26T00:21:07.252Z,7.43
2019-01-26T00:23:35.994Z,7.70
2019-01-26T00:26:04.765Z,7.60
2019-01-26T00:28:33.528Z,7.60
2019-01-26T00:31:02.297Z,7.27
2019-01-26T00:33:31.060Z,7.67
2019-01-26T00:35:59.831Z,8.00
2019-01-26T00:38:28.698Z,7.43
2019-01-26T00:40:57.623Z,7.90
2019-01-26T00:43:26.377Z,8.37
2019-01-26T00:45:55.138Z,7.70
2019-01-26T00:48:23.959Z,7.07
2019-01-26T00:50:52.696Z,7.07
2019-01-26T00:53:21.438Z,6.90
2019-01-26T00:55:50.295Z,7.40
2019-01-26T00:58:23.508Z,7.13
2019-01-26T01:00:49.537Z,8.17
2019-01-26T01:03:18.310Z,7.10
2019-01-26T01:05:47.135Z,6.80
2019-01-26T01:08:15.918Z,6.83
2019-01-26T01:10:44.694Z,7.40
2019-01-26T01:13:13.455Z,6.87
2019-01-26T01:15:42.219Z,7.67
2019-01-26T01:18:10.957Z,6.80
2019-01-26T01:20:39.702Z,7.77
2019-01-26T01:23:08.464Z,6.50
2019-01-26T01:25:37.252Z,7.00
2019-01-26T01:28:06.499Z,7.03
2019-01-26T01:30:35.283Z,7.23
2019-01-26T01:33:04.030Z,6.93
2019-01-26T01:35:32.814Z,6.30
2019-01-26T01:38:01.571Z,7.10
2019-01-26T01:40:30.337Z,6.70
2019-01-26T01:42:59.181Z,6.97
2019-01-26T01:45:27.939Z,7.53
2019-01-26T01:47:56.667Z,7.00
2019-01-26T01:50:25.433Z,6.83
2019-01-26T01:52:54.223Z,6.50
2019-01-26T01:55:22.980Z,7.10
2019-01-26T01:57:51.728Z,7.07
2019-01-26T02:00:21.872Z,6.37
2019-01-26T02:02:50.739Z,6.63
2019-01-26T02:05:19.480Z,6.90
2019-01-26T02:07:48.242Z,6.83
2019-01-26T02:10:18.465Z,7.03
2019-01-26T02:12:47.226Z,7.20
2019-01-26T02:15:16.042Z,6.87
2019-01-26T02:17:44.792Z,6.73
2019-01-26T02:20:18.582Z,6.63
2019-01-26T02:22:47.407Z,6.70
2019-01-26T02:25:16.210Z,7.17
2019-01-26T02:27:45.112Z,6.47
2019-01-26T02:30:16.367Z,7.00
2019-01-26T02:32:45.232Z,6.20
2019-01-26T02:35:13.992Z,6.23
2019-01-26T02:37:42.749Z,6.43
2019-01-26T02:40:12.082Z,6.07
2019-01-26T02:42:40.833Z,6.53
2019-01-26T02:45:10.809Z,6.13
2019-01-26T02:47:39.647Z,6.23
2019-01-26T02:50:11.022Z,5.90
2019-01-26T02:52:39.801Z,6.13
2019-01-26T02:55:08.542Z,6.53
2019-01-26T02:57:37.365Z,6.40
2019-01-26T03:00:10.912Z,6.43
2019-01-26T03:02:39.760Z,6.87
2019-01-26T03:05:08.796Z,6.50
2019-01-26T03:07:37.580Z,5.80
2019-01-26T03:10:07.366Z,6.50
2019-01-26T03:12:36.376Z,5.83
2019-01-26T03:15:07.455Z,6.97
2019-01-26T03:17:36.210Z,6.60
2019-01-26T03:20:06.692Z,6.50
2019-01-26T03:22:35.445Z,5.57
2019-01-26T03:25:04.342Z,5.53
2019-01-26T03:27:33.113Z,5.80
2019-01-26T03:30:01.860Z,6.17
2019-01-26T03:32:30.628Z,5.67
2019-01-26T03:34:59.372Z,5.90
2019-01-26T03:37:28.125Z,6.27
2019-01-26T03:39:56.951Z,6.20
2019-01-26T03:42:25.703Z,6.63
2019-01-26T03:44:54.464Z,5.50
2019-01-26T03:47:23.211Z,6.50
2019-01-26T03:49:53.622Z,5.00
2019-01-26T03:52:22.483Z,5.93
2019-01-26T03:54:51.256Z,5.27
2019-01-26T03:57:20.286Z,6.00
2019-01-26T03:59:49.164Z,5.67
2019-01-26T04:02:17.941Z,5.87
2019-01-26T04:04:46.709Z,5.43
2019-01-26T04:07:15.463Z,5.03
2019-01-26T04:09:44.250Z,5.70
2019-01-26T04:12:12.991Z,5.30
2019-01-26T04:14:41.748Z,5.23
2019-01-26T04:17:10.522Z,5.53
2019-01-26T04:19:39.271Z,5.13
2019-01-26T04:22:08.049Z,5.73
2019-01-26T04:24:36.808Z,5.17
2019-01-26T04:27:05.585Z,5.40
2019-01-26T04:29:34.343Z,5.13
2019-01-26T04:32:03.101Z,5.37
2019-01-26T04:34:31.887Z,5.67
2019-01-26T04:37:00.658Z,5.07
2019-01-26T04:39:29.533Z,5.17
2019-01-26T04:41:58.287Z,5.50
2019-01-26T04:44:27.046Z,4.77
2019-01-26T04:46:55.804Z,5.20
2019-01-26T04:49:24.581Z,5.50
2019-01-26T04:51:53.324Z,5.13
2019-01-26T04:54:22.082Z,5.20
2019-01-26T04:56:50.829Z,5.00
2019-01-26T04:59:19.571Z,5.00
2019-01-26T05:01:48.320Z,5.50
2019-01-26T05:04:17.054Z,5.20
2019-01-26T05:06:45.826Z,5.37
2019-01-26T05:09:14.570Z,4.80
2019-01-26T05:11:43.340Z,4.93
2019-01-26T05:14:12.102Z,5.00
2019-01-26T05:16:40.912Z,5.23
2019-01-26T05:19:10.260Z,4.87
2019-01-26T05:21:39.087Z,5.67
2019-01-26T05:24:07.934Z,5.13
2019-01-26T05:26:36.814Z,5.00
2019-01-26T05:29:05.608Z,4.97
2019-01-26T05:31:34.434Z,5.27
2019-01-26T05:34:03.198Z,5.80
2019-01-26T05:36:32.028Z,6.83
2019-01-26T05:39:00.852Z,6.67
2019-01-26T05:41:29.613Z,5.70
2019-01-26T05:43:58.353Z,4.87
2019-01-26T05:46:27.991Z,5.90
2019-01-26T05:48:56.896Z,6.00
2019-01-26T05:51:25.798Z,5.53
2019-01-26T05:53:54.538Z,4.90
2019-01-26T05:56:23.316Z,5.17
2019-01-26T05:58:52.131Z,5.30
2019-01-26T06:01:20.950Z,5.60
2019-01-26T06:03:49.734Z,5.30
2019-01-26T06:06:18.490Z,5.00
2019-01-26T06:08:47.267Z,4.73
2019-01-26T06:11:16.094Z,5.23
2019-01-26T06:13:44.878Z,5.00
2019-01-26T06:16:13.626Z,5.00
2019-01-26T06:18:42.394Z,5.30
2019-01-26T06:21:11.236Z,5.13
2019-01-26T06:23:39.969Z,5.20
2019-01-26T06:26:08.750Z,6.17
2019-01-26T06:28:37.572Z,5.40
2019-01-26T06:31:06.344Z,5.33
2019-01-26T06:33:35.174Z,4.90
2019-01-26T06:36:04.137Z,4.53
2019-01-26T06:38:32.924Z,4.80
2019-01-26T06:41:01.818Z,4.57
2019-01-26T06:43:30.595Z,5.07
2019-01-26T06:45:59.363Z,5.00
2019-01-26T06:48:28.138Z,4.80
2019-01-26T06:50:56.978Z,4.90
2019-01-26T06:53:25.774Z,5.33
2019-01-26T06:55:54.546Z,5.37
2019-01-26T06:58:23.403Z,4.87
2019-01-26T07:00:52.178Z,4.37
2019-01-26T07:03:20.958Z,4.60
2019-01-26T07:05:57.874Z,4.90
2019-01-26T07:08:26.634Z,5.23
2019-01-26T07:10:55.483Z,5.97
2019-01-26T07:13:24.273Z,4.73
2019-01-26T07:15:54.823Z,5.53
2019-01-26T07:18:23.636Z,4.70
2019-01-26T07:20:52.485Z,4.67
2019-01-26T07:23:21.597Z,4.60
2019-01-26T07:25:50.380Z,5.00
2019-01-26T07:28:19.398Z,5.03
2019-01-26T07:30:48.260Z,5.00
2019-01-26T07:33:17.164Z,4.97
2019-01-26T07:35:45.951Z,4.63
2019-01-26T07:38:14.714Z,4.60
2019-01-26T07:40:43.515Z,5.07
2019-01-26T07:43:12.319Z,6.83
2019-01-26T07:45:41.067Z,4.50
2019-01-26T07:48:16.538Z,4.40
2019-01-26T07:50:40.477Z,6.80
2019-01-26T07:53:09.395Z,6.63
2019-01-26T07:55:38.145Z,4.60
2019-01-26T07:58:07.050Z,5.73
2019-01-26T08:00:35.906Z,5.00
2019-01-26T08:03:04.669Z,5.03
2019-01-26T08:05:33.438Z,4.70
2019-01-26T08:08:02.196Z,4.87
2019-01-26T08:10:30.981Z,4.37
2019-01-26T08:12:59.749Z,4.40
2019-01-26T08:15:34.213Z,4.83
2019-01-26T08:18:03.424Z,5.03
2019-01-26T08:20:32.257Z,4.10
2019-01-26T08:23:01.042Z,4.43
2019-01-26T08:25:29.950Z,4.03
2019-01-26T08:27:58.800Z,4.23
2019-01-26T08:30:27.632Z,4.07
2019-01-26T08:32:56.520Z,4.50
2019-01-26T08:35:25.379Z,4.27
2019-01-26T08:37:54.167Z,4.53
2019-01-26T08:40:23.007Z,4.60
2019-01-26T08:42:52.053Z,4.27
2019-01-26T08:45:20.803Z,4.57
2019-01-26T08:47:50.008Z,4.00
2019-01-26T08:50:23.442Z,4.00
2019-01-26T08:52:52.367Z,3.80
2019-01-26T08:55:21.189Z,3.97
2019-01-26T08:57:50.013Z,4.10
2019-01-26T09:00:20.922Z,3.90
2019-01-26T09:03:08.930Z,3.83
2019-01-26T09:06:00.698Z,3.80
2019-01-26T09:08:29.550Z,3.83
2019-01-26T09:10:58.416Z,4.10
2019-01-26T09:13:27.266Z,3.73
2019-01-26T09:15:56.023Z,4.37
2019-01-26T09:18:24.896Z,3.70
2019-01-26T09:20:53.644Z,3.73
2019-01-26T09:23:22.429Z,4.23
2019-01-26T09:25:51.177Z,4.97
2019-01-26T09:28:20.155Z,13.70
2019-01-26T09:30:48.979Z,4.27
2019-01-26T09:33:17.749Z,9.67
2019-01-26T09:35:46.511Z,6.17
2019-01-26T09:38:15.282Z,10.33
2019-01-26T09:40:44.954Z,12.53
2019-01-26T09:43:13.773Z,4.03
2019-01-26T09:45:42.534Z,4.03
2019-01-26T09:48:11.272Z,5.63
2019-01-26T09:50:40.056Z,5.67
2019-01-26T09:53:08.848Z,4.90
2019-01-26T09:55:37.683Z,8.40
2019-01-26T09:58:06.541Z,9.33
2019-01-26T10:00:35.419Z,9.80
2019-01-26T10:03:04.559Z,5.20
2019-01-26T10:05:33.783Z,3.40
2019-01-26T10:08:02.614Z,5.23
2019-01-26T10:10:31.366Z,5.57
2019-01-26T10:13:00.186Z,6.07
2019-01-26T10:15:29.851Z,4.20
2019-01-26T10:17:58.725Z,4.00
2019-01-26T10:20:29.069Z,4.40
2019-01-26T10:22:57.877Z,3.70
2019-01-26T10:25:26.732Z,5.07
2019-01-26T10:27:55.518Z,3.67
2019-01-26T10:30:31.644Z,4.03
2019-01-26T10:33:00.471Z,3.70
2019-01-26T10:35:49.819Z,6.73
2019-01-26T10:38:18.869Z,4.23
2019-01-26T10:41:05.356Z,4.10
2019-01-26T10:43:36.981Z,3.50
2019-01-26T10:46:05.829Z,5.20
2019-01-26T10:48:34.677Z,5.40
2019-01-26T10:51:03.506Z,3.70
2019-01-26T10:53:32.284Z,3.40
2019-01-26T10:56:01.104Z,3.50
2019-01-26T10:58:29.924Z,4.90
2019-01-26T11:00:58.771Z,4.60
2019-01-26T11:03:27.562Z,4.17
2019-01-26T11:05:56.321Z,4.10
2019-01-26T11:08:25.108Z,4.17
2019-01-26T11:10:53.891Z,4.07
2019-01-26T11:13:22.682Z,4.70
2019-01-26T11:15:51.445Z,4.73
2019-01-26T11:18:20.315Z,4.77
2019-01-26T11:20:49.155Z,4.30
2019-01-26T11:23:17.947Z,4.87
2019-01-26T11:25:46.727Z,4.40
2019-01-26T11:28:15.643Z,4.23
2019-01-26T11:30:44.399Z,4.20
2019-01-26T11:33:13.206Z,4.10
2019-01-26T11:35:41.973Z,4.00
2019-01-26T11:38:10.743Z,4.17
2019-01-26T11:40:39.669Z,3.80
2019-01-26T11:43:08.545Z,4.47
2019-01-26T11:46:06.154Z,4.30
2019-01-26T11:48:38.629Z,4.10
2019-01-26T11:51:21.707Z,4.13
2019-01-26T11:53:50.564Z,3.70
2019-01-26T11:56:38.462Z,4.13
2019-01-26T11:59:07.235Z,4.37
2019-01-26T12:01:58.239Z,3.90
2019-01-26T12:04:52.253Z,4.07
2019-01-26T12:07:23.938Z,4.30
2019-01-26T12:09:52.718Z,3.73
2019-01-26T12:12:21.527Z,4.57
2019-01-26T12:14:50.294Z,4.17
2019-01-26T12:17:19.093Z,4.70
2019-01-26T12:19:48.020Z,4.10
2019-01-26T12:22:16.846Z,4.20
2019-01-26T12:24:45.714Z,5.23
2019-01-26T12:27:14.636Z,3.67
2019-01-26T12:29:43.584Z,4.07
2019-01-26T12:32:12.410Z,4.10
2019-01-26T12:34:41.206Z,5.93
2019-01-26T12:37:10.091Z,4.33
2019-01-26T12:39:38.896Z,4.00
2019-01-26T12:42:07.676Z,3.90
2019-01-26T12:44:36.556Z,3.70
2019-01-26T12:47:05.521Z,3.97
2019-01-26T12:49:34.326Z,3.60
2019-01-26T12:52:03.090Z,4.37
2019-01-26T12:54:31.948Z,4.07
2019-01-26T12:57:00.757Z,4.03
2019-01-26T12:59:29.532Z,4.13
2019-01-26T13:01:58.325Z,4.10
2019-01-26T13:04:27.196Z,3.50
2019-01-26T13:06:56.010Z,3.87
2019-01-26T13:09:24.970Z,3.50
2019-01-26T13:11:54.260Z,3.97
2019-01-26T13:14:23.135Z,3.90
2019-01-26T13:16:52.028Z,3.90
2019-01-26T13:19:21.589Z,4.00
2019-01-26T13:21:51.014Z,3.73
2019-01-26T13:24:19.942Z,4.53
2019-01-26T13:26:49.628Z,3.93
2019-01-26T13:29:19.122Z,4.20
2019-01-26T13:31:47.936Z,4.07
2019-01-26T13:34:16.901Z,3.87
2019-01-26T13:36:45.724Z,3.70
2019-01-26T13:39:16.296Z,3.90
2019-01-26T13:41:45.219Z,4.37
2019-01-26T13:44:14.366Z,4.20
2019-01-26T13:46:43.153Z,4.10
2019-01-26T13:49:12.150Z,3.77
2019-01-26T13:51:40.947Z,4.00
2019-01-26T13:54:09.944Z,3.80
2019-01-26T13:56:38.910Z,3.77
2019-01-26T13:59:08.046Z,3.70
2019-01-26T14:01:36.872Z,3.90
2019-01-26T14:04:05.628Z,3.80
2019-01-26T14:06:34.567Z,3.73
2019-01-26T14:09:05.426Z,3.40
2019-01-26T14:11:34.206Z,3.90
2019-01-26T14:14:03.108Z,3.50
2019-01-26T14:16:32.056Z,3.50
2019-01-26T14:19:00.975Z,3.70
2019-01-26T14:21:29.879Z,3.40
2019-01-26T14:23:58.688Z,3.43
2019-01-26T14:26:27.562Z,3.63
2019-01-26T14:28:56.344Z,3.53
2019-01-26T14:31:25.253Z,3.50
2019-01-26T14:33:54.051Z,3.40
2019-01-26T14:36:22.896Z,3.60
2019-01-26T14:38:51.681Z,3.37
2019-01-26T14:41:20.484Z,3.63
2019-01-26T14:43:49.300Z,3.47
2019-01-26T14:46:18.462Z,3.03
2019-01-26T14:48:47.365Z,3.27
2019-01-26T14:51:16.456Z,3.33
2019-01-26T14:53:47.750Z,2.90
2019-01-26T14:56:16.015Z,3.07
2019-01-26T14:58:45.021Z,3.17
2019-01-26T15:01:13.945Z,3.30
2019-01-26T15:03:42.939Z,3.20
2019-01-26T15:06:11.871Z,3.30
2019-01-26T15:08:40.871Z,3.57
2019-01-26T15:11:09.861Z,3.50
2019-01-26T15:13:42.635Z,3.07
2019-01-26T15:16:11.608Z,3.27
2019-01-26T15:18:40.635Z,3.60
2019-01-26T15:21:09.429Z,3.20
2019-01-26T15:23:38.500Z,3.20
2019-01-26T15:26:07.702Z,3.00
2019-01-26T15:28:42.810Z,3.30
2019-01-26T15:31:07.225Z,3.03
2019-01-26T15:33:36.124Z,3.40
2019-01-26T15:36:09.170Z,3.20
2019-01-26T15:38:35.883Z,3.20
2019-01-26T15:41:04.751Z,3.00
2019-01-26T15:43:33.710Z,3.00
2019-01-26T15:46:02.512Z,3.30
2019-01-26T15:48:31.445Z,3.10
2019-01-26T15:51:00.407Z,2.90
2019-01-26T15:53:29.362Z,2.97
2019-01-26T15:55:58.222Z,2.97
2019-01-26T15:58:27.036Z,3.20
2019-01-26T16:00:56.086Z,2.97
2019-01-26T16:03:25.059Z,2.63
2019-01-26T16:05:54.225Z,3.10
2019-01-26T16:08:23.051Z,2.80
2019-01-26T16:10:52.067Z,3.30
2019-01-26T16:13:20.959Z,2.37
2019-01-26T16:15:49.952Z,2.90
2019-01-26T16:18:19.029Z,2.97
2019-01-26T16:20:47.930Z,2.90
2019-01-26T16:23:16.935Z,2.97
2019-01-26T16:25:45.737Z,2.80
2019-01-26T16:28:14.629Z,2.97
2019-01-26T16:30:43.538Z,2.80
2019-01-26T16:33:12.339Z,3.03
2019-01-26T16:35:41.299Z,3.10
2019-01-26T16:38:10.241Z,2.77
2019-01-26T16:40:39.203Z,2.67
2019-01-26T16:43:08.040Z,2.90
2019-01-26T16:45:38.547Z,3.03
2019-01-26T16:48:09.896Z,2.40
2019-01-26T16:50:38.889Z,2.90
2019-01-26T16:53:08.089Z,2.57
2019-01-26T16:55:37.025Z,3.03
2019-01-26T16:58:06.112Z,2.50
2019-01-26T17:00:37.357Z,2.83
2019-01-26T17:03:06.425Z,2.90
2019-01-26T17:05:35.392Z,2.40
2019-01-26T17:08:04.429Z,2.60
2019-01-26T17:10:34.304Z,2.90
2019-01-26T17:13:03.370Z,2.70
2019-01-26T17:15:32.303Z,2.90
2019-01-26T17:18:01.518Z,2.40
2019-01-26T17:20:35.122Z,2.60
2019-01-26T17:23:01.654Z,2.67
2019-01-26T17:25:30.510Z,2.63
2019-01-26T17:27:59.595Z,2.40
2019-01-26T17:30:33.353Z,2.50
2019-01-26T17:33:07.377Z,2.63
2019-01-26T17:35:32.831Z,2.33
2019-01-26T17:38:01.736Z,2.57
2019-01-26T17:40:30.655Z,2.77
2019-01-26T17:42:59.624Z,2.40
2019-01-26T17:45:28.602Z,2.90
2019-01-26T17:47:57.472Z,2.90
2019-01-26T17:50:26.426Z,2.67
2019-01-26T17:52:55.502Z,2.67
2019-01-26T17:55:24.548Z,2.73
2019-01-26T17:57:53.575Z,2.30
2019-01-26T18:00:31.580Z,2.50
2019-01-26T18:03:00.559Z,2.57
2019-01-26T18:05:29.545Z,2.37
2019-01-26T18:07:58.528Z,2.27
2019-01-26T18:10:27.362Z,2.40
2019-01-26T18:12:56.308Z,2.43
2019-01-26T18:15:25.293Z,3.33
2019-01-26T18:17:54.104Z,2.63
2019-01-26T18:20:24.915Z,2.47
2019-01-26T18:22:53.889Z,2.80
2019-01-26T18:25:25.027Z,2.50
2019-01-26T18:27:54.061Z,5.33
2019-01-26T18:30:24.229Z,2.23
2019-01-26T18:32:53.285Z,2.40
2019-01-26T18:35:22.287Z,2.60
2019-01-26T18:37:51.197Z,2.73
2019-01-26T18:40:22.573Z,2.67
2019-01-26T18:42:51.550Z,4.03
2019-01-26T18:45:21.993Z,2.63
2019-01-26T18:47:51.356Z,2.63
2019-01-26T18:50:22.538Z,2.80
2019-01-26T18:52:51.567Z,2.53
2019-01-26T18:55:20.675Z,3.97
2019-01-26T18:57:50.145Z,4.00
2019-01-26T19:00:32.479Z,2.47
2019-01-26T19:03:18.243Z,2.60
2019-01-26T19:05:47.630Z,2.80
2019-01-26T19:08:18.395Z,2.70
2019-01-26T19:10:47.481Z,2.40
2019-01-26T19:13:16.619Z,3.37
2019-01-26T19:15:45.752Z,2.53
2019-01-26T19:18:14.863Z,2.57
2019-01-26T19:20:44.506Z,2.70
2019-01-26T19:23:13.657Z,2.53
2019-01-26T19:25:42.861Z,2.20
2019-01-26T19:28:12.019Z,2.83
2019-01-26T19:30:42.557Z,2.50
2019-01-26T19:33:13.917Z,2.50
2019-01-26T19:35:43.113Z,2.67
2019-01-26T19:38:13.171Z,2.70
2019-01-26T19:40:42.532Z,2.70
2019-01-26T19:43:11.641Z,2.40
2019-01-26T19:45:41.058Z,2.80
2019-01-26T19:48:10.095Z,2.33
2019-01-26T19:50:41.482Z,2.20
2019-01-26T19:53:10.633Z,2.47
2019-01-26T19:55:41.999Z,2.10
2019-01-26T19:58:11.428Z,2.30
2019-01-26T20:00:40.985Z,2.20
2019-01-26T20:03:11.296Z,2.40
2019-01-26T20:05:40.785Z,2.37
2019-01-26T20:08:11.628Z,2.20
2019-01-26T20:10:42.400Z,2.20
2019-01-26T20:13:11.798Z,2.30
2019-01-26T20:15:41.217Z,2.37
2019-01-26T20:18:10.619Z,2.53
2019-01-26T20:20:41.848Z,2.10
2019-01-26T20:23:13.393Z,2.47
2019-01-26T20:25:42.832Z,2.23
2019-01-26T20:28:15.088Z,2.40
2019-01-26T20:30:44.246Z,2.33
2019-01-26T20:33:13.374Z,2.03
2019-01-26T20:35:42.774Z,2.20
2019-01-26T20:38:11.892Z,2.33
2019-01-26T20:40:41.170Z,2.53
2019-01-26T20:43:10.277Z,2.50
2019-01-26T20:45:44.795Z,2.30
2019-01-26T20:48:13.941Z,2.30
2019-01-26T20:50:49.226Z,2.20
2019-01-26T20:53:14.386Z,2.50
2019-01-26T20:55:43.762Z,2.17
2019-01-26T20:58:12.887Z,2.20
2019-01-26T21:00:42.808Z,1.90
2019-01-26T21:03:12.719Z,2.30
2019-01-26T21:05:41.940Z,2.37
2019-01-26T21:08:11.247Z,2.17
2019-01-26T21:10:41.592Z,2.13
2019-01-26T21:13:16.235Z,2.30
2019-01-26T21:15:42.488Z,1.90
2019-01-26T21:18:11.988Z,2.23
2019-01-26T21:20:41.146Z,2.33
2019-01-26T21:23:11.468Z,1.80
2019-01-26T21:25:40.622Z,2.47
2019-01-26T21:28:09.777Z,2.37
2019-01-26T21:30:39.380Z,2.13
2019-01-26T21:33:10.459Z,2.13
2019-01-26T21:35:39.817Z,2.13
2019-01-26T21:38:10.024Z,2.30
2019-01-26T21:40:39.095Z,2.47
2019-01-26T21:43:08.181Z,2.10
2019-01-26T21:45:39.058Z,2.20
2019-01-26T21:48:08.277Z,2.30
2019-01-26T21:50:38.778Z,2.43
2019-01-26T21:53:07.895Z,2.30
2019-01-26T21:55:37.968Z,2.20
2019-01-26T21:58:07.082Z,2.27
2019-01-26T22:00:36.169Z,2.20
2019-01-26T22:03:05.327Z,2.20
2019-01-26T22:05:35.527Z,2.20
2019-01-26T22:08:07.435Z,2.43
2019-01-26T22:10:36.515Z,2.23
2019-01-26T22:13:05.514Z,2.20
2019-01-26T22:15:34.584Z,2.70
2019-01-26T22:18:03.559Z,2.10
2019-01-26T22:20:32.487Z,2.20
2019-01-26T22:23:01.557Z,2.20
2019-01-26T22:25:30.862Z,2.67
2019-01-26T22:27:59.848Z,2.30
2019-01-26T22:30:33.412Z,2.07
2019-01-26T22:33:02.416Z,2.67
2019-01-26T22:35:31.381Z,2.30
2019-01-26T22:38:00.344Z,2.40
2019-01-26T22:40:31.328Z,2.07
2019-01-26T22:43:00.386Z,2.30
2019-01-26T22:45:29.382Z,2.20
2019-01-26T22:47:58.282Z,1.87
2019-01-26T22:50:27.165Z,2.27
2019-01-26T22:52:56.052Z,2.57
2019-01-26T22:55:24.851Z,2.23
2019-01-26T22:57:53.726Z,2.40
2019-01-26T23:01:00.009Z,2.13
2019-01-26T23:03:49.315Z,2.20
2019-01-26T23:06:59.458Z,2.33
2019-01-26T23:09:53.318Z,2.03
2019-01-26T23:13:01.523Z,2.30
2019-01-26T23:16:07.399Z,2.10
2019-01-26T23:18:56.373Z,2.40
2019-01-26T23:21:40.606Z,2.20
2019-01-26T23:24:42.690Z,2.63
2019-01-26T23:27:30.820Z,2.37
2019-01-26T23:30:42.528Z,2.27
2019-01-26T23:33:11.284Z,2.10
2019-01-26T23:35:40.087Z,2.63
2019-01-26T23:38:08.916Z,2.40
2019-01-26T23:40:37.766Z,2.40
2019-01-26T23:43:06.524Z,2.50
2019-01-26T23:45:35.308Z,2.77
2019-01-26T23:48:04.077Z,2.50
2019-01-26T23:50:32.937Z,2.13
2019-01-26T23:53:01.836Z,2.20
2019-01-26T23:55:30.690Z,2.50
2019-01-26T23:57:59.438Z,2.60
